createdAt,value
2022-07-28T00:03:40.804Z,99719.67
2022-07-28T00:13:46.639Z,99722.20
2022-07-28T00:23:52.540Z,99726.21
2022-07-28T00:34:01.285Z,99718.58
2022-07-28T00:44:08.510Z,99717.45
2022-07-28T00:54:14.677Z,99714.36
2022-07-28T01:04:21.894Z,99714.26
2022-07-28T01:14:36.257Z,99714.02
2022-07-28T01:24:52.280Z,99720.02
2022-07-28T01:35:01.903Z,99725.46
2022-07-28T01:45:13.484Z,99731.44
2022-07-28T01:55:21.349Z,99737.64
2022-07-28T02:05:28.940Z,99742.17
2022-07-28T02:15:35.619Z,99745.68
2022-07-28T02:25:43.094Z,99742.67
2022-07-28T02:35:57.487Z,99743.56
2022-07-28T02:46:11.582Z,99752.30
2022-07-28T02:56:18.778Z,99757.27
2022-07-28T03:06:28.861Z,99764.73
2022-07-28T03:16:34.999Z,99773.31
2022-07-28T03:26:49.505Z,99782.63
2022-07-28T03:37:02.402Z,99784.98
2022-07-28T03:47:08.610Z,99794.13
2022-07-28T03:57:14.715Z,99801.02
2022-07-28T04:07:20.398Z,99808.81
2022-07-28T04:17:26.301Z,99812.11
2022-07-28T04:27:32.159Z,99809.30
2022-07-28T04:37:38.077Z,99805.37
2022-07-28T04:47:44.226Z,99801.70
2022-07-28T04:57:50.147Z,99805.87
2022-07-28T05:07:56.431Z,99802.65
2022-07-28T05:18:00.775Z,99803.55
2022-07-28T05:28:06.929Z,99801.69
2022-07-28T05:38:13.045Z,99802.15
2022-07-28T05:48:21.897Z,99803.29
2022-07-28T05:58:27.657Z,99809.30
2022-07-28T06:08:33.415Z,99810.79
2022-07-28T06:18:39.061Z,99813.99
2022-07-28T06:28:44.929Z,99820.39
2022-07-28T06:38:50.932Z,99815.20
2022-07-28T06:48:56.921Z,99812.76
2022-07-28T06:59:03.813Z,99820.05
2022-07-28T07:09:09.755Z,99826.20
2022-07-28T07:19:16.105Z,99822.14
2022-07-28T07:29:23.078Z,99820.98
2022-07-28T07:39:28.818Z,99821.65
2022-07-28T07:49:45.221Z,99825.80
2022-07-28T07:59:51.713Z,99834.88
2022-07-28T08:09:57.581Z,99834.46
2022-07-28T08:20:04.636Z,99845.34
2022-07-28T08:30:18.614Z,99850.04
2022-07-28T08:40:30.272Z,99848.07
2022-07-28T08:50:37.245Z,99854.06
2022-07-28T09:00:42.463Z,99854.21
2022-07-28T09:10:48.204Z,99866.25
2022-07-28T09:20:54.503Z,99856.35
2022-07-28T09:31:09.524Z,99851.73
2022-07-28T09:41:19.012Z,99851.91
2022-07-28T09:51:27.077Z,99853.41
2022-07-28T10:01:36.839Z,99850.88
2022-07-28T10:11:42.808Z,99842.45
2022-07-28T10:21:53.351Z,99840.04
2022-07-28T10:32:05.564Z,99837.02
2022-07-28T10:42:13.766Z,99827.04
2022-07-28T10:52:45.591Z,99817.85
2022-07-28T11:02:58.996Z,99820.06
2022-07-28T11:13:06.959Z,99814.40
2022-07-28T11:23:46.244Z,99807.50
2022-07-28T11:33:58.295Z,99802.89
2022-07-28T11:44:28.008Z,99800.84
2022-07-28T11:54:35.403Z,99791.23
2022-07-28T12:04:41.337Z,99787.05
2022-07-28T12:14:47.579Z,99782.00
2022-07-28T12:24:59.677Z,99770.69
2022-07-28T12:35:06.382Z,99766.70
2022-07-28T12:45:13.308Z,99768.59
2022-07-28T12:55:29.508Z,99763.03
2022-07-28T13:05:58.242Z,99766.73
2022-07-28T13:16:18.350Z,99763.30
2022-07-28T13:26:24.382Z,99772.58
2022-07-28T13:36:30.384Z,99769.83
2022-07-28T13:46:40.401Z,99769.02
2022-07-28T13:57:10.537Z,99768.08
2022-07-28T14:07:16.384Z,99765.84
2022-07-28T14:17:43.554Z,99763.52
2022-07-28T14:27:51.759Z,99759.95
2022-07-28T14:38:49.819Z,99755.37
2022-07-28T14:48:23.910Z,99752.02
2022-07-28T14:58:29.849Z,99750.05
2022-07-28T15:08:35.656Z,99746.67
2022-07-28T15:18:41.530Z,99742.41
2022-07-28T15:28:48.526Z,99735.10
2022-07-28T15:38:54.870Z,99736.02
2022-07-28T15:49:04.888Z,99730.11
2022-07-28T15:59:11.204Z,99733.47
2022-07-28T16:09:17.396Z,99733.28
2022-07-28T16:19:46.598Z,99731.52
2022-07-28T16:29:50.718Z,99729.84
2022-07-28T16:39:57.442Z,99726.40
2022-07-28T16:50:03.304Z,99732.95
2022-07-28T17:00:13.729Z,99735.02
2022-07-28T17:10:21.133Z,99731.00
2022-07-28T17:20:32.497Z,99737.16
2022-07-28T17:30:38.450Z,99738.51
2022-07-28T17:40:44.261Z,99740.23
2022-07-28T17:50:51.425Z,99742.30
2022-07-28T18:01:10.178Z,99747.52
2022-07-28T18:11:17.621Z,99755.80
2022-07-28T18:21:23.415Z,99765.66
2022-07-28T18:31:29.346Z,99766.70
2022-07-28T18:41:46.107Z,99772.00
2022-07-28T18:51:54.990Z,99776.79
2022-07-28T19:02:00.858Z,99791.64
2022-07-28T19:12:08.020Z,99801.83
2022-07-28T19:22:13.719Z,99808.74
2022-07-28T19:32:19.477Z,99812.47
2022-07-28T19:42:29.109Z,99818.50
2022-07-28T19:52:35.079Z,99825.31
2022-07-28T20:02:43.497Z,99830.26
2022-07-28T20:12:49.560Z,99833.98
2022-07-28T20:22:55.224Z,99837.99
2022-07-28T20:33:02.408Z,99843.30
2022-07-28T20:43:08.264Z,99846.58
2022-07-28T20:53:14.063Z,99853.05
2022-07-28T21:03:21.607Z,99858.84
2022-07-28T21:13:27.542Z,99863.39
2022-07-28T21:23:33.460Z,99869.48
2022-07-28T21:33:39.516Z,99879.98
2022-07-28T21:43:45.690Z,99886.34
2022-07-28T21:53:52.678Z,99888.00
2022-07-28T22:03:59.065Z,99897.44
2022-07-28T22:14:05.187Z,99905.69
2022-07-28T22:24:11.548Z,99907.54
2022-07-28T22:34:17.698Z,99908.33
2022-07-28T22:44:23.817Z,99913.48
2022-07-28T22:54:29.608Z,99916.37
2022-07-28T23:04:35.316Z,99911.17
2022-07-28T23:14:41.195Z,99909.85
2022-07-28T23:24:46.969Z,99904.85
2022-07-28T23:34:52.783Z,99909.14
2022-07-28T23:44:58.600Z,99906.75
2022-07-28T23:55:04.836Z,99904.48
